sensor_id;sensor_type;location;lat;lon;timestamp;pressure;altitude;pressure_sealevel;temperature;humidity
19096;BME280;9680;52.520;13.332;2023-05-29T00:01:12;101746.84;;;15.64;51.73
19096;BME280;9680;52.520;13.332;2023-05-29T00:03:46;101747.75;;;15.63;51.64
19096;BME280;9680;52.520;13.332;2023-05-29T00:06:24;101740.78;;;15.62;51.61
19096;BME280;9680;52.520;13.332;2023-05-29T00:09:04;101748.72;;;15.61;51.09
19096;BME280;9680;52.520;13.332;2023-05-29T00:11:57;101746.28;;;15.56;51.30
19096;BME280;9680;52.520;13.332;2023-05-29T00:14:55;101751.66;;;15.53;51.08
19096;BME280;9680;52.520;13.332;2023-05-29T00:17:35;101752.66;;;15.50;51.30
19096;BME280;9680;52.520;13.332;2023-05-29T00:20:14;101757.97;;;15.49;51.28
19096;BME280;9680;52.520;13.332;2023-05-29T00:22:52;101762.38;;;15.48;51.08
19096;BME280;9680;52.520;13.332;2023-05-29T00:25:37;101752.06;;;15.43;51.18
19096;BME280;9680;52.520;13.332;2023-05-29T00:28:19;101763.56;;;15.41;51.08
19096;BME280;9680;52.520;13.332;2023-05-29T00:30:47;101753.84;;;15.43;51.17
19096;BME280;9680;52.520;13.332;2023-05-29T00:33:14;101753.06;;;15.41;51.01
19096;BME280;9680;52.520;13.332;2023-05-29T00:36:05;101740.06;;;15.38;50.99
19096;BME280;9680;52.520;13.332;2023-05-29T00:38:55;101751.41;;;15.38;51.19
19096;BME280;9680;52.520;13.332;2023-05-29T00:41:36;101745.44;;;15.35;51.37
19096;BME280;9680;52.520;13.332;2023-05-29T00:44:35;101757.00;;;15.31;51.23
19096;BME280;9680;52.520;13.332;2023-05-29T00:47:20;101746.50;;;15.31;51.44
19096;BME280;9680;52.520;13.332;2023-05-29T00:49:55;101752.06;;;15.23;52.09
19096;BME280;9680;52.520;13.332;2023-05-29T00:52:44;101753.09;;;15.19;51.62
19096;BME280;9680;52.520;13.332;2023-05-29T00:55:13;101749.59;;;15.18;51.42
19096;BME280;9680;52.520;13.332;2023-05-29T00:57:50;101748.94;;;15.13;51.86
19096;BME280;9680;52.520;13.332;2023-05-29T01:00:45;101756.91;;;15.11;51.75
19096;BME280;9680;52.520;13.332;2023-05-29T01:03:20;101754.53;;;15.05;51.93
19096;BME280;9680;52.520;13.332;2023-05-29T01:05:48;101754.56;;;15.04;51.98
19096;BME280;9680;52.520;13.332;2023-05-29T01:08:23;101758.13;;;15.03;51.73
19096;BME280;9680;52.520;13.332;2023-05-29T01:11:16;101761.53;;;15.05;51.87
19096;BME280;9680;52.520;13.332;2023-05-29T01:13:56;101759.03;;;15.02;51.89
19096;BME280;9680;52.520;13.332;2023-05-29T01:17:06;101760.94;;;14.98;52.08
19096;BME280;9680;52.520;13.332;2023-05-29T01:20:06;101754.00;;;14.97;52.06
19096;BME280;9680;52.520;13.332;2023-05-29T01:23:07;101763.63;;;14.96;52.26
19096;BME280;9680;52.520;13.332;2023-05-29T01:26:07;101760.28;;;14.93;52.48
19096;BME280;9680;52.520;13.332;2023-05-29T01:28:41;101769.09;;;14.90;52.56
19096;BME280;9680;52.520;13.332;2023-05-29T01:31:12;101767.66;;;14.83;52.95
19096;BME280;9680;52.520;13.332;2023-05-29T01:33:40;101769.59;;;14.78;52.96
19096;BME280;9680;52.520;13.332;2023-05-29T01:36:08;101770.63;;;14.74;53.25
19096;BME280;9680;52.520;13.332;2023-05-29T01:39:00;101766.56;;;14.65;54.25
19096;BME280;9680;52.520;13.332;2023-05-29T01:41:53;101774.63;;;14.60;54.08
19096;BME280;9680;52.520;13.332;2023-05-29T01:44:27;101762.50;;;14.56;54.13
19096;BME280;9680;52.520;13.332;2023-05-29T01:47:15;101770.38;;;14.56;54.22
19096;BME280;9680;52.520;13.332;2023-05-29T01:49:56;101770.50;;;14.53;54.14
19096;BME280;9680;52.520;13.332;2023-05-29T01:52:47;101772.31;;;14.51;54.67
19096;BME280;9680;52.520;13.332;2023-05-29T01:55:30;101768.06;;;14.48;54.85
19096;BME280;9680;52.520;13.332;2023-05-29T01:57:58;101769.22;;;14.41;55.58
19096;BME280;9680;52.520;13.332;2023-05-29T02:00:35;101773.03;;;14.32;55.56
19096;BME280;9680;52.520;13.332;2023-05-29T02:03:27;101774.13;;;14.26;56.06
19096;BME280;9680;52.520;13.332;2023-05-29T02:05:54;101778.66;;;14.21;56.66
19096;BME280;9680;52.520;13.332;2023-05-29T02:08:22;101777.06;;;14.17;56.69
19096;BME280;9680;52.520;13.332;2023-05-29T02:10:49;101778.88;;;14.15;56.81
19096;BME280;9680;52.520;13.332;2023-05-29T02:13:16;101777.13;;;14.16;56.33
19096;BME280;9680;52.520;13.332;2023-05-29T02:15:55;101781.56;;;14.13;56.34
19096;BME280;9680;52.520;13.332;2023-05-29T02:18:25;101783.31;;;14.13;56.66
19096;BME280;9680;52.520;13.332;2023-05-29T02:20:55;101789.59;;;14.09;56.77
19096;BME280;9680;52.520;13.332;2023-05-29T02:23:33;101787.94;;;14.06;57.04
19096;BME280;9680;52.520;13.332;2023-05-29T02:26:14;101780.03;;;14.08;56.79
19096;BME280;9680;52.520;13.332;2023-05-29T02:28:45;101783.78;;;14.01;57.68
19096;BME280;9680;52.520;13.332;2023-05-29T02:31:24;101781.44;;;13.93;57.71
19096;BME280;9680;52.520;13.332;2023-05-29T02:34:06;101782.44;;;13.89;58.03
19096;BME280;9680;52.520;13.332;2023-05-29T02:36:47;101788.75;;;13.83;58.47
19096;BME280;9680;52.520;13.332;2023-05-29T02:39:27;101783.63;;;13.80;58.34
19096;BME280;9680;52.520;13.332;2023-05-29T02:42:13;101788.88;;;13.80;58.25
19096;BME280;9680;52.520;13.332;2023-05-29T02:44:45;101788.88;;;13.80;58.07
19096;BME280;9680;52.520;13.332;2023-05-29T02:47:33;101788.09;;;13.76;58.31
19096;BME280;9680;52.520;13.332;2023-05-29T02:50:24;101787.41;;;13.71;58.30
19096;BME280;9680;52.520;13.332;2023-05-29T02:52:54;101792.88;;;13.65;58.56
19096;BME280;9680;52.520;13.332;2023-05-29T02:55:44;101787.81;;;13.60;58.48
19096;BME280;9680;52.520;13.332;2023-05-29T02:58:23;101786.94;;;13.60;58.67
19096;BME280;9680;52.520;13.332;2023-05-29T03:00:55;101794.00;;;13.58;58.69
19096;BME280;9680;52.520;13.332;2023-05-29T03:03:44;101793.03;;;13.60;58.75
19096;BME280;9680;52.520;13.332;2023-05-29T03:06:25;101796.50;;;13.61;58.75
19096;BME280;9680;52.520;13.332;2023-05-29T03:08:58;101804.41;;;13.59;59.06
19096;BME280;9680;52.520;13.332;2023-05-29T03:11:45;101809.03;;;13.51;59.27
19096;BME280;9680;52.520;13.332;2023-05-29T03:14:43;101804.69;;;13.50;59.39
19096;BME280;9680;52.520;13.332;2023-05-29T03:17:17;101810.91;;;13.47;59.02
19096;BME280;9680;52.520;13.332;2023-05-29T03:19:56;101815.25;;;13.48;59.05
19096;BME280;9680;52.520;13.332;2023-05-29T03:22:33;101810.94;;;13.46;59.17
19096;BME280;9680;52.520;13.332;2023-05-29T03:25:03;101819.66;;;13.46;59.22
19096;BME280;9680;52.520;13.332;2023-05-29T03:28:14;101807.53;;;13.44;59.50
19096;BME280;9680;52.520;13.332;2023-05-29T03:30:47;101813.47;;;13.49;58.91
19096;BME280;9680;52.520;13.332;2023-05-29T03:33:25;101808.22;;;13.49;58.46
19096;BME280;9680;52.520;13.332;2023-05-29T03:36:18;101812.53;;;13.51;58.90
19096;BME280;9680;52.520;13.332;2023-05-29T03:39:28;101812.53;;;13.51;58.58
19096;BME280;9680;52.520;13.332;2023-05-29T03:42:14;101814.91;;;13.59;58.77
19096;BME280;9680;52.520;13.332;2023-05-29T03:47:38;101813.56;;;13.73;57.85
19096;BME280;9680;52.520;13.332;2023-05-29T03:50:06;101817.59;;;13.81;57.73
19096;BME280;9680;52.520;13.332;2023-05-29T03:52:36;101815.50;;;13.93;57.33
19096;BME280;9680;52.520;13.332;2023-05-29T03:55:08;101814.41;;;13.98;56.83
19096;BME280;9680;52.520;13.332;2023-05-29T03:57:39;101815.22;;;14.01;57.01
19096;BME280;9680;52.520;13.332;2023-05-29T04:00:07;101824.88;;;13.98;57.03
19096;BME280;9680;52.520;13.332;2023-05-29T04:02:39;101820.44;;;14.01;57.03
19096;BME280;9680;52.520;13.332;2023-05-29T04:05:06;101821.47;;;13.96;57.19
19096;BME280;9680;52.520;13.332;2023-05-29T04:07:41;101817.13;;;13.95;57.24
19096;BME280;9680;52.520;13.332;2023-05-29T04:10:17;101817.78;;;14.02;56.73
19096;BME280;9680;52.520;13.332;2023-05-29T04:12:57;101822.81;;;14.08;57.02
19096;BME280;9680;52.520;13.332;2023-05-29T04:18:56;101813.94;;;14.36;56.28
19096;BME280;9680;52.520;13.332;2023-05-29T04:21:45;101817.75;;;14.51;55.46
19096;BME280;9680;52.520;13.332;2023-05-29T04:24:48;101826.44;;;14.53;55.50
19096;BME280;9680;52.520;13.332;2023-05-29T04:27:43;101830.00;;;14.51;55.52
19096;BME280;9680;52.520;13.332;2023-05-29T04:30:30;101834.41;;;14.50;55.37
19096;BME280;9680;52.520;13.332;2023-05-29T04:33:14;101827.78;;;14.64;55.35
19096;BME280;9680;52.520;13.332;2023-05-29T04:35:47;101826.44;;;14.77;55.02
19096;BME280;9680;52.520;13.332;2023-05-29T04:38:24;101823.16;;;14.94;54.75
19096;BME280;9680;52.520;13.332;2023-05-29T04:41:09;101822.38;;;15.14;54.40
19096;BME280;9680;52.520;13.332;2023-05-29T04:43:49;101821.34;;;15.19;53.81
19096;BME280;9680;52.520;13.332;2023-05-29T04:46:26;101824.88;;;15.18;53.41
19096;BME280;9680;52.520;13.332;2023-05-29T04:49:04;101826.75;;;15.14;53.57
19096;BME280;9680;52.520;13.332;2023-05-29T04:51:43;101826.72;;;15.16;53.56
19096;BME280;9680;52.520;13.332;2023-05-29T04:54:34;101825.00;;;15.14;53.37
19096;BME280;9680;52.520;13.332;2023-05-29T04:57:15;101824.88;;;15.18;53.27
19096;BME280;9680;52.520;13.332;2023-05-29T04:59:56;101839.16;;;15.33;53.28
19096;BME280;9680;52.520;13.332;2023-05-29T05:02:45;101835.94;;;15.47;52.97
19096;BME280;9680;52.520;13.332;2023-05-29T05:05:24;101833.16;;;15.51;52.55
19096;BME280;9680;52.520;13.332;2023-05-29T05:08:10;101827.09;;;15.49;52.85
19096;BME280;9680;52.520;13.332;2023-05-29T05:10:46;101827.94;;;15.50;52.84
19096;BME280;9680;52.520;13.332;2023-05-29T05:13:53;101823.81;;;15.44;52.60
19096;BME280;9680;52.520;13.332;2023-05-29T05:16:47;101824.66;;;15.44;52.81
19096;BME280;9680;52.520;13.332;2023-05-29T05:19:18;101824.47;;;15.49;52.87
19096;BME280;9680;52.520;13.332;2023-05-29T05:21:56;101829.59;;;15.52;52.17
19096;BME280;9680;52.520;13.332;2023-05-29T05:24:42;101831.44;;;15.50;52.16
19096;BME280;9680;52.520;13.332;2023-05-29T05:27:49;101830.22;;;15.59;52.02
19096;BME280;9680;52.520;13.332;2023-05-29T05:30:47;101836.19;;;15.63;51.83
19096;BME280;9680;52.520;13.332;2023-05-29T05:33:26;101842.81;;;15.71;51.74
19096;BME280;9680;52.520;13.332;2023-05-29T05:36:24;101834.69;;;15.78;51.43
19096;BME280;9680;52.520;13.332;2023-05-29T05:39:21;101840.91;;;15.75;50.89
19096;BME280;9680;52.520;13.332;2023-05-29T05:41:54;101836.91;;;15.66;51.23
19096;BME280;9680;52.520;13.332;2023-05-29T05:45:05;101846.41;;;15.69;50.81
19096;BME280;9680;52.520;13.332;2023-05-29T05:47:51;101839.28;;;15.72;50.97
19096;BME280;9680;52.520;13.332;2023-05-29T05:50:44;101848.88;;;15.73;50.74
19096;BME280;9680;52.520;13.332;2023-05-29T05:53:22;101845.50;;;15.70;50.83
19096;BME280;9680;52.520;13.332;2023-05-29T05:56:07;101843.53;;;15.75;50.69
19096;BME280;9680;52.520;13.332;2023-05-29T05:58:58;101843.94;;;15.86;50.09
19096;BME280;9680;52.520;13.332;2023-05-29T06:01:37;101856.97;;;16.10;50.28
19096;BME280;9680;52.520;13.332;2023-05-29T06:04:23;101858.03;;;17.23;47.82
19096;BME280;9680;52.520;13.332;2023-05-29T06:10:07;101859.47;;;17.47;47.08
19096;BME280;9680;52.520;13.332;2023-05-29T06:12:38;101855.13;;;17.99;45.68
19096;BME280;9680;52.520;13.332;2023-05-29T06:15:16;101850.28;;;17.92;45.36
19096;BME280;9680;52.520;13.332;2023-05-29T06:17:44;101851.91;;;17.76;45.59
19096;BME280;9680;52.520;13.332;2023-05-29T06:20:18;101851.50;;;17.67;46.01
19096;BME280;9680;52.520;13.332;2023-05-29T06:23:10;101868.84;;;17.71;45.55
19096;BME280;9680;52.520;13.332;2023-05-29T06:26:04;101867.22;;;17.51;46.11
19096;BME280;9680;52.520;13.332;2023-05-29T06:28:42;101867.66;;;17.41;45.98
19096;BME280;9680;52.520;13.332;2023-05-29T06:31:16;101868.41;;;17.26;45.93
19096;BME280;9680;52.520;13.332;2023-05-29T06:34:03;101878.81;;;17.10;46.26
19096;BME280;9680;52.520;13.332;2023-05-29T06:36:59;101873.22;;;17.17;46.45
19096;BME280;9680;52.520;13.332;2023-05-29T06:39:31;101882.38;;;17.45;46.09
19096;BME280;9680;52.520;13.332;2023-05-29T06:42:38;101880.72;;;17.62;45.82
19096;BME280;9680;52.520;13.332;2023-05-29T06:45:13;101873.66;;;17.63;45.41
19096;BME280;9680;52.520;13.332;2023-05-29T06:47:43;101877.31;;;17.60;45.71
19096;BME280;9680;52.520;13.332;2023-05-29T06:50:35;101872.25;;;17.73;45.77
19096;BME280;9680;52.520;13.332;2023-05-29T06:53:24;101877.78;;;17.86;44.93
19096;BME280;9680;52.520;13.332;2023-05-29T06:55:56;101876.09;;;18.02;44.84
19096;BME280;9680;52.520;13.332;2023-05-29T06:58:36;101878.84;;;18.17;44.24
19096;BME280;9680;52.520;13.332;2023-05-29T07:01:17;101882.41;;;18.16;43.66
19096;BME280;9680;52.520;13.332;2023-05-29T07:04:01;101874.19;;;18.22;44.24
19096;BME280;9680;52.520;13.332;2023-05-29T07:06:34;101870.66;;;18.39;43.67
19096;BME280;9680;52.520;13.332;2023-05-29T07:09:06;101880.56;;;18.52;43.77
19096;BME280;9680;52.520;13.332;2023-05-29T07:11:37;101875.44;;;18.48;43.14
19096;BME280;9680;52.520;13.332;2023-05-29T07:14:15;101890.88;;;18.56;43.47
19096;BME280;9680;52.520;13.332;2023-05-29T07:16:45;101883.41;;;18.31;42.81
19096;BME280;9680;52.520;13.332;2023-05-29T07:19:20;101890.81;;;18.24;43.52
19096;BME280;9680;52.520;13.332;2023-05-29T07:21:50;101887.25;;;18.25;43.18
19096;BME280;9680;52.520;13.332;2023-05-29T07:24:33;101883.34;;;18.32;43.19
19096;BME280;9680;52.520;13.332;2023-05-29T07:27:09;101881.09;;;18.58;43.00
19096;BME280;9680;52.520;13.332;2023-05-29T07:29:59;101884.38;;;18.96;43.02
19096;BME280;9680;52.520;13.332;2023-05-29T07:32:34;101888.81;;;19.11;42.14
19096;BME280;9680;52.520;13.332;2023-05-29T07:35:05;101889.06;;;19.06;40.45
19096;BME280;9680;52.520;13.332;2023-05-29T07:37:37;101889.13;;;19.21;40.32
19096;BME280;9680;52.520;13.332;2023-05-29T07:40:15;101890.59;;;19.27;40.33
19096;BME280;9680;52.520;13.332;2023-05-29T07:43:13;101887.91;;;19.59;40.41
19096;BME280;9680;52.520;13.332;2023-05-29T07:45:55;101885.78;;;20.11;39.24
19096;BME280;9680;52.520;13.332;2023-05-29T07:48:23;101891.47;;;20.48;39.21
19096;BME280;9680;52.520;13.332;2023-05-29T07:51:00;101893.16;;;20.63;38.91
19096;BME280;9680;52.520;13.332;2023-05-29T07:53:40;101896.00;;;20.31;39.13
19096;BME280;9680;52.520;13.332;2023-05-29T07:56:22;101900.81;;;20.25;38.72
19096;BME280;9680;52.520;13.332;2023-05-29T07:58:53;101903.44;;;20.54;37.92
19096;BME280;9680;52.520;13.332;2023-05-29T08:01:27;101894.28;;;20.59;37.71
19096;BME280;9680;52.520;13.332;2023-05-29T08:03:54;101902.16;;;20.61;38.24
19096;BME280;9680;52.520;13.332;2023-05-29T08:06:34;101897.88;;;20.73;38.36
19096;BME280;9680;52.520;13.332;2023-05-29T08:09:10;101896.75;;;20.62;38.73
19096;BME280;9680;52.520;13.332;2023-05-29T08:11:45;101905.16;;;20.26;38.03
19096;BME280;9680;52.520;13.332;2023-05-29T08:14:26;101902.50;;;19.81;38.86
19096;BME280;9680;52.520;13.332;2023-05-29T08:17:02;101909.56;;;19.49;39.48
19096;BME280;9680;52.520;13.332;2023-05-29T08:19:35;101900.88;;;19.47;39.96
19096;BME280;9680;52.520;13.332;2023-05-29T08:22:15;101900.00;;;19.63;40.06
19096;BME280;9680;52.520;13.332;2023-05-29T08:24:58;101898.16;;;19.79;39.96
19096;BME280;9680;52.520;13.332;2023-05-29T08:27:38;101893.19;;;19.89;39.75
19096;BME280;9680;52.520;13.332;2023-05-29T08:30:37;101892.66;;;19.99;39.71
19096;BME280;9680;52.520;13.332;2023-05-29T08:33:24;101890.41;;;20.07;39.34
19096;BME280;9680;52.520;13.332;2023-05-29T08:35:54;101887.63;;;19.94;39.11
19096;BME280;9680;52.520;13.332;2023-05-29T08:38:23;101888.91;;;19.87;39.60
19096;BME280;9680;52.520;13.332;2023-05-29T08:40:59;101889.72;;;20.03;39.48
19096;BME280;9680;52.520;13.332;2023-05-29T08:43:32;101886.81;;;20.08;39.44
19096;BME280;9680;52.520;13.332;2023-05-29T08:46:06;101886.63;;;19.97;39.40
19096;BME280;9680;52.520;13.332;2023-05-29T08:48:43;101879.72;;;20.08;39.58
19096;BME280;9680;52.520;13.332;2023-05-29T08:55:31;101885.50;;;20.30;38.98
19096;BME280;9680;52.520;13.332;2023-05-29T08:58:37;101893.63;;;19.82;39.03
19096;BME280;9680;52.520;13.332;2023-05-29T09:01:23;101892.28;;;19.74;39.34
19096;BME280;9680;52.520;13.332;2023-05-29T09:04:16;101888.41;;;19.96;39.38
19096;BME280;9680;52.520;13.332;2023-05-29T09:07:07;101889.41;;;20.24;39.14
19096;BME280;9680;52.520;13.332;2023-05-29T09:09:54;101888.44;;;20.40;38.88
19096;BME280;9680;52.520;13.332;2023-05-29T09:12:36;101893.16;;;20.49;38.75
19096;BME280;9680;52.520;13.332;2023-05-29T09:15:16;101888.63;;;20.51;38.40
19096;BME280;9680;52.520;13.332;2023-05-29T09:17:44;101888.16;;;20.59;38.74
19096;BME280;9680;52.520;13.332;2023-05-29T09:20:25;101882.56;;;20.63;38.71
19096;BME280;9680;52.520;13.332;2023-05-29T09:23:06;101891.19;;;20.67;38.72
19096;BME280;9680;52.520;13.332;2023-05-29T09:26:16;101890.47;;;20.78;38.38
19096;BME280;9680;52.520;13.332;2023-05-29T09:28:45;101892.56;;;20.87;38.27
19096;BME280;9680;52.520;13.332;2023-05-29T09:31:23;101889.94;;;21.15;38.33
19096;BME280;9680;52.520;13.332;2023-05-29T09:34:03;101899.94;;;21.51;37.28
19096;BME280;9680;52.520;13.332;2023-05-29T09:36:40;101899.59;;;21.43;37.18
19096;BME280;9680;52.520;13.332;2023-05-29T09:39:11;101903.31;;;21.68;37.34
19096;BME280;9680;52.520;13.332;2023-05-29T09:41:51;101910.19;;;21.71;36.69
19096;BME280;9680;52.520;13.332;2023-05-29T09:44:22;101903.16;;;21.57;36.15
19096;BME280;9680;52.520;13.332;2023-05-29T09:46:59;101904.59;;;21.48;36.25
19096;BME280;9680;52.520;13.332;2023-05-29T09:49:26;101899.44;;;21.59;36.51
19096;BME280;9680;52.520;13.332;2023-05-29T09:51:54;101906.50;;;21.86;36.17
19096;BME280;9680;52.520;13.332;2023-05-29T09:54:37;101892.94;;;21.91;36.16
19096;BME280;9680;52.520;13.332;2023-05-29T09:57:06;101892.19;;;21.89;35.94
19096;BME280;9680;52.520;13.332;2023-05-29T09:59:46;101881.06;;;21.84;35.50
19096;BME280;9680;52.520;13.332;2023-05-29T10:02:26;101886.16;;;21.87;35.75
19096;BME280;9680;52.520;13.332;2023-05-29T10:05:00;101884.22;;;21.76;35.21
19096;BME280;9680;52.520;13.332;2023-05-29T10:07:35;101870.34;;;21.72;35.49
19096;BME280;9680;52.520;13.332;2023-05-29T10:10:22;101869.50;;;22.10;35.67
19096;BME280;9680;52.520;13.332;2023-05-29T10:13:06;101858.44;;;22.30;34.97
19096;BME280;9680;52.520;13.332;2023-05-29T10:15:45;101870.75;;;22.44;34.60
19096;BME280;9680;52.520;13.332;2023-05-29T10:18:31;101876.28;;;22.40;34.34
19096;BME280;9680;52.520;13.332;2023-05-29T10:21:02;101882.03;;;22.34;33.96
19096;BME280;9680;52.520;13.332;2023-05-29T10:26:29;101874.91;;;22.61;34.14
19096;BME280;9680;52.520;13.332;2023-05-29T10:29:19;101876.00;;;22.82;32.69
19096;BME280;9680;52.520;13.332;2023-05-29T10:32:18;101880.31;;;22.96;33.21
19096;BME280;9680;52.520;13.332;2023-05-29T10:35:16;101881.19;;;22.84;32.21
19096;BME280;9680;52.520;13.332;2023-05-29T10:37:57;101870.44;;;22.35;32.97
19096;BME280;9680;52.520;13.332;2023-05-29T10:40:28;101863.22;;;22.24;33.42
19096;BME280;9680;52.520;13.332;2023-05-29T10:42:55;101869.72;;;22.20;32.61
19096;BME280;9680;52.520;13.332;2023-05-29T10:45:54;101866.19;;;22.20;31.62
19096;BME280;9680;52.520;13.332;2023-05-29T10:48:41;101862.38;;;22.37;31.20
19096;BME280;9680;52.520;13.332;2023-05-29T10:51:25;101855.75;;;22.68;31.36
19096;BME280;9680;52.520;13.332;2023-05-29T10:54:15;101861.31;;;23.27;31.24
19096;BME280;9680;52.520;13.332;2023-05-29T10:57:13;101856.34;;;23.69;31.10
19096;BME280;9680;52.520;13.332;2023-05-29T10:59:49;101853.31;;;23.63;31.53
19096;BME280;9680;52.520;13.332;2023-05-29T11:02:28;101854.50;;;23.23;32.42
19096;BME280;9680;52.520;13.332;2023-05-29T11:05:06;101866.41;;;22.93;32.67
19096;BME280;9680;52.520;13.332;2023-05-29T11:07:53;101862.16;;;22.66;33.20
19096;BME280;9680;52.520;13.332;2023-05-29T11:10:45;101860.88;;;22.59;32.91
19096;BME280;9680;52.520;13.332;2023-05-29T11:13:32;101865.97;;;22.36;32.82
19096;BME280;9680;52.520;13.332;2023-05-29T11:16:11;101857.88;;;22.63;32.68
19096;BME280;9680;52.520;13.332;2023-05-29T11:18:40;101858.38;;;23.06;31.52
19096;BME280;9680;52.520;13.332;2023-05-29T11:21:34;101848.50;;;23.32;31.12
19096;BME280;9680;52.520;13.332;2023-05-29T11:24:07;101850.22;;;23.20;31.67
19096;BME280;9680;52.520;13.332;2023-05-29T11:26:56;101846.97;;;22.92;31.51
19096;BME280;9680;52.520;13.332;2023-05-29T11:32:34;101850.47;;;22.43;33.08
19096;BME280;9680;52.520;13.332;2023-05-29T11:35:09;101849.75;;;22.15;33.28
19096;BME280;9680;52.520;13.332;2023-05-29T11:38:03;101851.34;;;21.78;33.42
19096;BME280;9680;52.520;13.332;2023-05-29T11:44:34;101847.91;;;22.41;32.47
19096;BME280;9680;52.520;13.332;2023-05-29T11:53:47;101850.00;;;22.99;31.93
19096;BME280;9680;52.520;13.332;2023-05-29T11:56:17;101841.47;;;23.07;31.81
19096;BME280;9680;52.520;13.332;2023-05-29T11:58:44;101846.56;;;23.10;32.18
19096;BME280;9680;52.520;13.332;2023-05-29T12:01:16;101851.13;;;22.83;32.60
19096;BME280;9680;52.520;13.332;2023-05-29T12:03:44;101843.69;;;22.51;33.04
19096;BME280;9680;52.520;13.332;2023-05-29T12:09:32;101840.84;;;22.79;32.60
19096;BME280;9680;52.520;13.332;2023-05-29T12:12:18;101838.44;;;23.24;31.39
19096;BME280;9680;52.520;13.332;2023-05-29T12:15:20;101827.94;;;23.59;30.54
19096;BME280;9680;52.520;13.332;2023-05-29T12:17:53;101829.88;;;23.68;30.96
19096;BME280;9680;52.520;13.332;2023-05-29T12:20:23;101825.69;;;23.41;31.63
19096;BME280;9680;52.520;13.332;2023-05-29T12:22:52;101822.53;;;23.11;32.30
19096;BME280;9680;52.520;13.332;2023-05-29T12:25:23;101831.63;;;22.72;32.61
19096;BME280;9680;52.520;13.332;2023-05-29T12:27:50;101825.72;;;22.55;32.95
19096;BME280;9680;52.520;13.332;2023-05-29T12:30:21;101834.38;;;22.46;32.81
19096;BME280;9680;52.520;13.332;2023-05-29T12:32:51;101832.88;;;22.54;32.16
19096;BME280;9680;52.520;13.332;2023-05-29T12:35:20;101836.72;;;22.75;31.64
19096;BME280;9680;52.520;13.332;2023-05-29T12:37:47;101830.31;;;22.90;31.05
19096;BME280;9680;52.520;13.332;2023-05-29T12:40:16;101826.53;;;23.30;30.77
19096;BME280;9680;52.520;13.332;2023-05-29T12:42:45;101821.97;;;23.19;30.39
19096;BME280;9680;52.520;13.332;2023-05-29T12:45:12;101830.22;;;23.03;30.69
19096;BME280;9680;52.520;13.332;2023-05-29T12:47:51;101828.94;;;22.84;30.97
19096;BME280;9680;52.520;13.332;2023-05-29T12:50:22;101826.72;;;22.78;30.70
19096;BME280;9680;52.520;13.332;2023-05-29T12:53:08;101827.56;;;22.54;30.74
19096;BME280;9680;52.520;13.332;2023-05-29T12:55:36;101831.25;;;22.52;30.88
19096;BME280;9680;52.520;13.332;2023-05-29T12:58:07;101819.16;;;22.61;30.70
19096;BME280;9680;52.520;13.332;2023-05-29T13:00:34;101812.03;;;22.86;30.63
19096;BME280;9680;52.520;13.332;2023-05-29T13:03:03;101811.34;;;23.19;30.63
19096;BME280;9680;52.520;13.332;2023-05-29T13:05:31;101801.66;;;23.42;30.04
19096;BME280;9680;52.520;13.332;2023-05-29T13:07:58;101812.06;;;23.46;29.72
19096;BME280;9680;52.520;13.332;2023-05-29T13:10:29;101809.25;;;23.36;29.69
19096;BME280;9680;52.520;13.332;2023-05-29T13:13:05;101815.22;;;23.51;30.33
19096;BME280;9680;52.520;13.332;2023-05-29T13:15:32;101816.22;;;23.73;29.68
19096;BME280;9680;52.520;13.332;2023-05-29T13:17:59;101809.81;;;23.98;29.97
19096;BME280;9680;52.520;13.332;2023-05-29T13:20:31;101796.88;;;24.39;28.96
19096;BME280;9680;52.520;13.332;2023-05-29T13:23:21;101790.47;;;24.41;28.08
19096;BME280;9680;52.520;13.332;2023-05-29T13:25:51;101787.13;;;24.28;28.48
19096;BME280;9680;52.520;13.332;2023-05-29T13:28:18;101781.66;;;24.18;28.90
19096;BME280;9680;52.520;13.332;2023-05-29T13:30:48;101783.69;;;23.92;29.40
19096;BME280;9680;52.520;13.332;2023-05-29T13:33:15;101784.44;;;23.82;29.64
19096;BME280;9680;52.520;13.332;2023-05-29T13:35:45;101784.66;;;23.56;29.99
19096;BME280;9680;52.520;13.332;2023-05-29T13:38:12;101789.91;;;23.34;30.13
19096;BME280;9680;52.520;13.332;2023-05-29T13:40:42;101794.59;;;22.94;30.43
19096;BME280;9680;52.520;13.332;2023-05-29T13:43:14;101795.81;;;22.77;30.82
19096;BME280;9680;52.520;13.332;2023-05-29T13:45:43;101796.50;;;22.68;30.96
19096;BME280;9680;52.520;13.332;2023-05-29T13:48:10;101797.69;;;22.64;31.07
19096;BME280;9680;52.520;13.332;2023-05-29T13:50:38;101788.69;;;22.78;30.90
19096;BME280;9680;52.520;13.332;2023-05-29T13:53:08;101793.88;;;23.04;30.61
19096;BME280;9680;52.520;13.332;2023-05-29T13:55:49;101792.06;;;23.29;30.59
19096;BME280;9680;52.520;13.332;2023-05-29T13:58:16;101793.22;;;23.60;30.62
19096;BME280;9680;52.520;13.332;2023-05-29T14:00:43;101787.91;;;23.71;30.41
19096;BME280;9680;52.520;13.332;2023-05-29T14:03:11;101801.09;;;23.73;30.49
19096;BME280;9680;52.520;13.332;2023-05-29T14:05:38;101791.81;;;23.90;30.57
19096;BME280;9680;52.520;13.332;2023-05-29T14:08:05;101792.81;;;24.01;30.27
19096;BME280;9680;52.520;13.332;2023-05-29T14:10:35;101797.88;;;24.15;29.68
19096;BME280;9680;52.520;13.332;2023-05-29T14:13:04;101791.97;;;24.00;29.18
19096;BME280;9680;52.520;13.332;2023-05-29T14:15:31;101799.94;;;24.00;29.59
19096;BME280;9680;52.520;13.332;2023-05-29T14:17:59;101793.75;;;24.22;29.66
19096;BME280;9680;52.520;13.332;2023-05-29T14:20:27;101791.56;;;24.27;28.83
19096;BME280;9680;52.520;13.332;2023-05-29T14:22:55;101792.34;;;24.07;28.70
19096;BME280;9680;52.520;13.332;2023-05-29T14:25:25;101791.97;;;24.00;29.01